Enterprise, Alabama
Current Conditions -  °F | °C
As of 6:56 PM on Monday 22 Dec 2014 (Local Time) from KSXS Reporting Station
Haze Haze  
Wind Chill: 56°   Ceiling: 100
Heat Index: 56°   Visibility: 2mi
Dew Point: 56°   Wind: 7mph
Humidity: 99%   Direction: 100°E
Pressure: 29.86"   Gusts: NA
Location:  31.32°N, 85.85°W
Report Text: KSXS 230056Z AUTO 10006KT 2SM BR BKN001 OVC003 13/13 A2986 RMK AO2 SLP113 T01320131
Loading
Personal Weather Stations






























Interactive Weather Map New forecast layout! Learn more

10-Day Weather Forecast

Advertisements
Track Severe Weather on mobile